KAKR/AKR METAR and TAF weather

Enter ICAO airport designator
Station Type Date Time Source
KAKR METAR 2019/02/17 06:54 UTC NOAA

KAKR 170654Z AUTO 08005KT 10SM OVC019 M03/M08 A3002 RMK AO2 SLP178 T10331083


Station Type Date Time Source
KAKR Decoded METAR 2019/02/17 06:54 UTC NOAA

AKRON FULTON INTERNATIONAL, OH, United States (KAKR) 41-02N 081-28W 363M
Feb 17, 2019 - 01:54 AM EST / 2019.02.17 0654 UTC
Wind: from the E (080 degrees) at 6 MPH (5 KT):0
Visibility: 10 mile(s):0
Sky conditions: overcast
Temperature: 26.1 F (-3.3 C)
Windchill: 19 F (-7 C):1
Dew Point: 17.1 F (-8.3 C)
Relative Humidity: 68%
Pressure (altimeter): 30.02 in. Hg (1016 hPa)
ob: KAKR 170654Z AUTO 08005KT 10SM OVC019 M03/M08 A3002 RMK AO2 SLP178 T10331083
cycle: 7

Station Type Date Time Source
KAKR TAF UTC NOAA

Error!


Example: see airport list